Time;durP1;ratioP1;P1;durP2;ratioP2;P2;SDS_P1;SDS_P2;PMS_P1;PMS_P2;Temp;Humidity;BMP_temperature;BMP_pressure;BME280_temperature;BME280_humidity;BME280_pressure;Samples;Min_cycle;Max_cycle;Signal;HPM_P1;HPM_P2
2022/11/13 00:00:05;;;;;;;4.93;2.57;;;5.30;99.90;;;;;;5071867;28;20467;-48
2022/11/13 00:02:33;;;;;;;3.93;3.20;;;5.40;99.90;;;;;;5071713;28;20902;-47
2022/11/13 00:05:00;;;;;;;2.87;2.10;;;5.40;99.90;;;;;;5071867;28;20538;-47
2022/11/13 00:07:27;;;;;;;1.47;1.13;;;5.30;99.90;;;;;;5071834;28;20524;-48
2022/11/13 00:09:54;;;;;;;2.73;1.77;;;5.30;99.90;;;;;;5071525;28;20554;-46
2022/11/13 00:12:23;;;;;;;2.87;2.00;;;4.70;99.90;;;;;;5071628;28;21068;-48
2022/11/13 00:14:49;;;;;;;3.40;1.80;;;4.40;99.90;;;;;;5071584;28;20567;-49
2022/11/13 00:17:16;;;;;;;2.47;2.27;;;4.80;99.90;;;;;;5071329;28;20958;-46
2022/11/13 00:19:43;;;;;;;3.67;1.80;;;5.10;99.90;;;;;;5071342;28;20473;-47
2022/11/13 00:22:10;;;;;;;3.10;2.20;;;5.30;99.90;;;;;;5071412;28;20440;-49
2022/11/13 00:24:36;;;;;;;3.20;1.93;;;5.30;99.90;;;;;;5071370;28;20444;-46
2022/11/13 00:27:03;;;;;;;2.73;2.23;;;5.40;99.90;;;;;;5071444;28;20448;-48
2022/11/13 00:29:32;;;;;;;3.07;2.03;;;5.00;99.90;;;;;;5071339;28;20467;-49
2022/11/13 00:31:59;;;;;;;5.00;2.77;;;4.30;99.90;;;;;;5071371;28;20576;-47
2022/11/13 00:34:25;;;;;;;3.90;2.83;;;3.80;99.90;;;;;;5070291;28;20444;-46
2022/11/13 00:36:52;;;;;;;5.23;2.70;;;3.80;99.90;;;;;;5071454;28;20433;-46
2022/11/13 00:39:19;;;;;;;4.70;3.10;;;4.00;99.90;;;;;;5071093;28;20466;-47
2022/11/13 00:41:46;;;;;;;3.23;2.93;;;4.20;99.90;;;;;;5071585;28;20441;-48
2022/11/13 00:44:13;;;;;;;3.33;2.60;;;4.60;99.90;;;;;;5071272;28;20448;-46
2022/11/13 00:46:41;;;;;;;4.43;2.43;;;4.90;99.90;;;;;;5071295;28;20454;-48
2022/11/13 00:49:08;;;;;;;7.20;4.33;;;5.10;99.90;;;;;;5070944;28;20462;-47
2022/11/13 00:51:35;;;;;;;4.93;3.30;;;5.20;99.90;;;;;;5071402;28;20505;-47
2022/11/13 00:54:02;;;;;;;4.10;3.07;;;5.30;99.90;;;;;;5070736;28;21036;-46
2022/11/13 00:56:28;;;;;;;4.27;3.10;;;5.30;99.90;;;;;;5071128;28;20530;-47
2022/11/13 00:58:55;;;;;;;5.27;3.17;;;4.70;99.90;;;;;;5071419;28;20467;-47
2022/11/13 01:01:22;;;;;;;3.47;2.77;;;4.70;99.90;;;;;;5071358;28;20451;-48
2022/11/13 01:03:50;;;;;;;2.80;2.50;;;4.60;99.90;;;;;;5070961;28;20813;-47
2022/11/13 01:06:20;;;;;;;2.40;2.20;;;4.90;99.90;;;;;;5071316;28;20952;-47
2022/11/13 01:08:47;;;;;;;4.67;2.57;;;4.60;99.90;;;;;;5071065;28;20459;-46
2022/11/13 01:11:15;;;;;;;5.10;2.67;;;4.90;99.90;;;;;;5071005;28;20443;-47
2022/11/13 01:13:45;;;;;;;4.20;2.47;;;5.00;99.90;;;;;;5070904;28;20534;-46
2022/11/13 01:16:13;;;;;;;5.00;3.00;;;5.20;99.90;;;;;;5070734;28;20537;-48
2022/11/13 01:18:41;;;;;;;3.50;2.17;;;5.30;99.90;;;;;;5071357;28;20567;-46
2022/11/13 01:21:11;;;;;;;2.57;2.23;;;5.30;99.90;;;;;;5070986;28;20451;-47
2022/11/13 01:23:38;;;;;;;2.80;2.30;;;5.30;99.90;;;;;;5070724;28;20534;-47
2022/11/13 01:26:11;;;;;;;3.53;2.43;;;4.80;99.90;;;;;;5070789;28;20447;-47
2022/11/13 01:28:39;;;;;;;3.00;2.23;;;4.90;99.90;;;;;;5070879;28;20542;-46
2022/11/13 01:31:06;;;;;;;2.90;2.60;;;5.10;99.90;;;;;;5071286;28;20536;-46
2022/11/13 01:33:33;;;;;;;2.13;1.80;;;5.20;99.90;;;;;;5070603;28;20934;-46
2022/11/13 01:36:01;;;;;;;2.97;2.47;;;5.10;99.90;;;;;;5071090;28;20535;-48
2022/11/13 01:38:30;;;;;;;3.33;2.20;;;4.90;99.90;;;;;;5070736;28;20469;-47
2022/11/13 01:40:57;;;;;;;2.73;1.60;;;4.80;99.90;;;;;;5071433;28;20475;-47
2022/11/13 01:43:27;;;;;;;2.60;1.80;;;4.40;99.90;;;;;;5070947;28;20437;-46
2022/11/13 01:46:15;;;;;;;5.40;4.20;;;4.50;99.90;;;;;;5072446;28;20531;-47
2022/11/13 01:48:45;;;;;;;3.23;2.60;;;4.80;99.90;;;;;;5074335;28;20483;-46
2022/11/13 01:51:16;;;;;;;2.63;1.97;;;4.80;99.90;;;;;;5074232;28;20432;-47
2022/11/13 01:53:47;;;;;;;3.90;2.63;;;4.60;99.90;;;;;;5073738;28;20956;-46
2022/11/13 01:56:16;;;;;;;2.87;2.40;;;4.30;99.90;;;;;;5074007;28;20463;-47
2022/11/13 01:58:47;;;;;;;5.07;2.97;;;4.10;99.90;;;;;;5074202;28;20548;-47
2022/11/13 02:01:14;;;;;;;3.60;2.37;;;4.10;99.90;;;;;;5074120;28;20527;-46
2022/11/13 02:03:41;;;;;;;2.90;2.60;;;4.30;99.90;;;;;;5074074;28;20928;-47
2022/11/13 02:06:08;;;;;;;3.17;2.63;;;4.30;99.90;;;;;;5073862;28;20436;-47
2022/11/13 02:08:35;;;;;;;3.83;2.80;;;4.50;99.90;;;;;;5074424;28;20571;-46
2022/11/13 02:11:03;;;;;;;4.20;2.57;;;4.70;99.90;;;;;;5074107;28;20440;-47
2022/11/13 02:13:30;;;;;;;3.80;2.70;;;4.80;99.90;;;;;;5073989;28;20490;-47
2022/11/13 02:15:57;;;;;;;3.07;2.50;;;4.80;99.90;;;;;;5073909;28;20526;-49
2022/11/13 02:18:27;;;;;;;4.80;2.17;;;4.90;99.90;;;;;;5073877;28;20443;-47
2022/11/13 02:21:04;;;;;;;3.10;1.90;;;4.90;99.90;;;;;;5075282;28;20882;-48
2022/11/13 02:23:41;;;;;;;1.87;1.63;;;4.90;99.90;;;;;;5073752;28;20444;-47
2022/11/13 02:26:10;;;;;;;2.93;2.37;;;4.80;99.90;;;;;;5073653;28;20447;-49
2022/11/13 02:28:37;;;;;;;3.40;1.83;;;4.60;99.90;;;;;;5073802;28;20547;-46
2022/11/13 02:31:08;;;;;;;2.70;2.33;;;4.80;99.90;;;;;;5073797;28;20975;-47
2022/11/13 02:33:36;;;;;;;3.00;2.40;;;4.90;99.90;;;;;;5073390;28;20563;-47
2022/11/13 02:36:05;;;;;;;2.30;2.10;;;5.00;99.90;;;;;;5073454;28;20879;-47
2022/11/13 02:38:32;;;;;;;6.17;2.53;;;5.00;99.90;;;;;;5073821;28;21051;-48
2022/11/13 02:40:59;;;;;;;2.77;2.17;;;5.00;99.90;;;;;;5073527;28;20535;-47
2022/11/13 02:43:27;;;;;;;1.43;1.33;;;5.00;99.90;;;;;;5073474;28;20439;-46
2022/11/13 02:45:54;;;;;;;2.77;1.57;;;4.90;99.90;;;;;;5073218;28;20443;-46
2022/11/13 02:48:21;;;;;;;2.20;1.60;;;4.90;99.90;;;;;;5073381;28;20810;-48
2022/11/13 02:50:48;;;;;;;2.03;1.63;;;4.90;99.90;;;;;;5073309;28;21023;-46
2022/11/13 02:53:15;;;;;;;2.20;1.30;;;4.90;99.90;;;;;;5072779;28;21005;-47
2022/11/13 02:55:42;;;;;;;2.93;2.10;;;4.90;99.90;;;;;;5072918;28;20447;-46
2022/11/13 02:58:09;;;;;;;4.30;1.43;;;4.80;99.90;;;;;;5072263;28;20445;-46
2022/11/13 03:00:37;;;;;;;2.50;2.00;;;4.40;99.90;;;;;;5073200;28;20480;-49
2022/11/13 03:03:04;;;;;;;5.83;1.60;;;4.10;99.90;;;;;;5072776;28;20466;-49
2022/11/13 03:05:31;;;;;;;2.00;1.37;;;4.20;99.90;;;;;;5072983;28;20449;-47
2022/11/13 03:07:58;;;;;;;2.03;1.40;;;4.50;99.90;;;;;;5072796;28;20488;-47
2022/11/13 03:10:24;;;;;;;1.50;1.40;;;4.70;99.90;;;;;;5072873;28;20545;-48
2022/11/13 03:12:51;;;;;;;2.40;1.63;;;4.80;99.90;;;;;;5072735;28;20571;-44
2022/11/13 03:15:18;;;;;;;2.13;1.93;;;4.80;99.90;;;;;;5072606;28;20881;-47
2022/11/13 03:17:46;;;;;;;2.30;1.40;;;4.80;99.90;;;;;;5072308;28;20961;-47
2022/11/13 03:20:13;;;;;;;2.57;1.37;;;4.30;99.90;;;;;;5072680;28;20942;-47
2022/11/13 03:22:40;;;;;;;1.80;1.30;;;4.40;99.90;;;;;;5073034;28;20446;-47
2022/11/13 03:25:08;;;;;;;1.87;1.50;;;4.30;99.90;;;;;;5072360;28;20484;-46
2022/11/13 03:27:34;;;;;;;2.60;1.60;;;4.10;99.90;;;;;;5072630;28;20529;-47
2022/11/13 03:30:01;;;;;;;3.00;2.33;;;4.40;99.90;;;;;;5072310;28;20459;-49
2022/11/13 03:32:28;;;;;;;3.87;3.57;;;4.60;99.90;;;;;;5071993;28;20566;-46
2022/11/13 03:34:56;;;;;;;7.10;3.63;;;4.70;99.90;;;;;;5072190;28;21010;-46
2022/11/13 03:37:23;;;;;;;2.10;1.60;;;4.80;99.90;;;;;;5072525;28;20438;-47
2022/11/13 03:39:50;;;;;;;1.60;1.33;;;4.40;99.90;;;;;;5072313;28;20497;-49
2022/11/13 03:42:17;;;;;;;2.03;1.10;;;4.20;99.90;;;;;;5072244;28;20435;-47
2022/11/13 03:44:44;;;;;;;2.37;1.63;;;4.40;99.90;;;;;;5071851;28;20442;-46
2022/11/13 03:47:11;;;;;;;3.27;1.80;;;4.70;99.90;;;;;;5071989;28;20478;-47
2022/11/13 03:49:37;;;;;;;1.60;1.10;;;4.60;99.90;;;;;;5072167;28;20494;-46
2022/11/13 03:52:06;;;;;;;1.80;1.33;;;4.10;99.90;;;;;;5072073;28;20522;-47
2022/11/13 03:54:32;;;;;;;2.73;1.40;;;4.40;99.90;;;;;;5071915;28;20528;-47
2022/11/13 03:56:59;;;;;;;1.57;1.20;;;4.30;99.90;;;;;;5071604;28;20814;-47
2022/11/13 03:59:26;;;;;;;1.67;1.20;;;4.40;99.90;;;;;;5071817;28;20467;-47
2022/11/13 04:01:53;;;;;;;1.87;1.20;;;4.60;99.90;;;;;;5071796;28;20530;-47
2022/11/13 04:04:20;;;;;;;1.90;1.20;;;4.70;99.90;;;;;;5071761;28;20444;-47
2022/11/13 04:06:47;;;;;;;3.80;2.30;;;4.40;99.90;;;;;;5071642;28;21004;-47
2022/11/13 04:09:15;;;;;;;1.20;0.90;;;4.10;99.90;;;;;;5071610;28;20578;-47
2022/11/13 04:11:42;;;;;;;2.17;1.73;;;4.10;99.90;;;;;;5071627;28;20534;-47
2022/11/13 04:14:08;;;;;;;3.13;2.17;;;3.90;99.90;;;;;;5071817;28;20483;-47
2022/11/13 04:16:35;;;;;;;2.87;1.50;;;3.60;99.90;;;;;;5071423;28;20446;-46
2022/11/13 04:19:02;;;;;;;2.00;1.60;;;4.00;99.90;;;;;;5071676;28;20652;-48
2022/11/13 04:21:29;;;;;;;2.50;1.80;;;4.30;99.90;;;;;;5071609;28;20544;-48
2022/11/13 04:23:56;;;;;;;3.23;1.60;;;4.40;99.90;;;;;;5071287;28;20438;-46
2022/11/13 04:26:24;;;;;;;2.57;1.50;;;4.40;99.90;;;;;;5071387;28;20543;-47
2022/11/13 04:28:51;;;;;;;1.93;1.50;;;4.20;99.90;;;;;;5071624;28;20460;-46
2022/11/13 04:31:18;;;;;;;1.80;1.70;;;4.20;99.90;;;;;;5071539;28;20532;-47
2022/11/13 04:33:45;;;;;;;3.27;2.00;;;4.20;99.90;;;;;;5070962;28;20570;-46
2022/11/13 04:36:11;;;;;;;3.13;2.03;;;3.80;99.90;;;;;;5071476;28;21015;-49
2022/11/13 04:38:38;;;;;;;5.80;2.10;;;3.70;99.90;;;;;;5071016;28;20469;-48
2022/11/13 04:43:51;;;;;;;2.03;1.53;;;3.90;99.90;;;;;;5071138;28;20419;-46
2022/11/13 04:46:17;;;;;;;2.30;2.10;;;4.10;99.90;;;;;;5071801;28;20440;-46
2022/11/13 04:48:44;;;;;;;2.10;1.80;;;4.00;99.90;;;;;;5071200;28;20685;-49
2022/11/13 04:51:12;;;;;;;1.70;1.60;;;4.10;99.90;;;;;;5071263;28;20458;-47
2022/11/13 04:53:38;;;;;;;2.20;1.77;;;4.20;99.90;;;;;;5071104;28;20485;-47
2022/11/13 04:56:06;;;;;;;1.87;1.30;;;4.30;99.90;;;;;;5071054;28;20442;-46
2022/11/13 04:58:32;;;;;;;2.60;1.33;;;4.30;99.90;;;;;;5071310;28;20524;-46
2022/11/13 05:01:02;;;;;;;1.80;1.57;;;4.40;99.90;;;;;;5071336;28;20826;-46
2022/11/13 05:03:29;;;;;;;2.23;1.53;;;4.40;99.90;;;;;;5071845;28;20618;-50
2022/11/13 05:06:02;;;;;;;4.33;1.30;;;4.40;99.90;;;;;;5071329;28;20875;-46
2022/11/13 05:08:29;;;;;;;1.57;1.33;;;4.30;99.90;;;;;;5071127;28;20473;-47
2022/11/13 05:10:56;;;;;;;1.83;1.53;;;4.20;99.90;;;;;;5071329;28;20441;-49
2022/11/13 05:13:23;;;;;;;1.80;1.50;;;4.30;99.90;;;;;;5070790;28;20479;-48
2022/11/13 05:15:50;;;;;;;3.83;1.47;;;4.20;99.90;;;;;;5070811;28;20891;-46
2022/11/13 05:18:18;;;;;;;2.70;1.43;;;3.80;99.90;;;;;;5071142;28;20515;-48
2022/11/13 05:20:45;;;;;;;2.70;1.50;;;4.00;99.90;;;;;;5072849;28;20469;-48
2022/11/13 05:23:11;;;;;;;2.20;1.87;;;4.10;99.90;;;;;;5074850;28;20435;-47
2022/11/13 05:25:38;;;;;;;1.87;1.30;;;4.20;99.90;;;;;;5074735;28;20454;-47
2022/11/13 05:28:05;;;;;;;2.87;2.10;;;4.20;99.90;;;;;;5074942;28;20452;-48
2022/11/13 05:30:32;;;;;;;3.50;3.00;;;4.30;99.90;;;;;;5074646;28;20994;-48
2022/11/13 05:32:59;;;;;;;5.47;4.97;;;4.30;99.90;;;;;;5074463;28;20483;-48
2022/11/13 05:35:27;;;;;;;3.43;3.13;;;4.20;99.90;;;;;;5075126;28;20466;-48
2022/11/13 05:37:54;;;;;;;3.83;3.53;;;4.10;99.90;;;;;;5074658;28;20531;-48
2022/11/13 05:40:21;;;;;;;4.70;2.00;;;4.20;99.90;;;;;;5074394;28;20541;-47
2022/11/13 05:42:48;;;;;;;1.70;1.00;;;4.00;99.90;;;;;;5074512;28;21019;-49
2022/11/13 05:45:15;;;;;;;2.70;2.03;;;3.70;99.90;;;;;;5074761;28;20455;-47
2022/11/13 05:47:42;;;;;;;2.30;2.10;;;3.90;99.90;;;;;;5074487;28;20941;-47
2022/11/13 05:50:09;;;;;;;3.17;1.63;;;4.00;99.90;;;;;;5074481;28;20460;-47
2022/11/13 05:52:38;;;;;;;8.13;7.00;;;4.10;99.90;;;;;;5074163;28;21011;-47
2022/11/13 05:55:05;;;;;;;4.10;2.47;;;4.10;99.90;;;;;;5074256;28;20837;-49
2022/11/13 05:57:32;;;;;;;3.03;2.17;;;3.60;99.90;;;;;;5073959;28;20521;-48
2022/11/13 05:59:59;;;;;;;2.23;2.00;;;3.40;99.90;;;;;;5074226;28;21031;-48
2022/11/13 06:02:26;;;;;;;3.67;2.37;;;3.70;99.90;;;;;;5074226;28;20535;-48
2022/11/13 06:04:53;;;;;;;7.40;3.90;;;3.50;99.90;;;;;;5074014;28;20448;-47
2022/11/13 06:07:20;;;;;;;5.37;4.87;;;3.70;99.90;;;;;;5074042;28;20447;-49
2022/11/13 06:09:48;;;;;;;3.63;3.27;;;3.80;99.90;;;;;;5074139;28;20457;-47
2022/11/13 06:12:14;;;;;;;3.10;2.80;;;4.00;99.90;;;;;;5074017;28;20438;-47
2022/11/13 06:14:41;;;;;;;2.43;1.70;;;4.00;99.90;;;;;;5073837;28;20474;-47
2022/11/13 06:17:08;;;;;;;1.83;1.27;;;3.90;99.90;;;;;;5073993;28;20817;-48
2022/11/13 06:19:35;;;;;;;2.70;1.67;;;4.00;99.90;;;;;;5073620;28;20484;-47
2022/11/13 06:22:02;;;;;;;3.00;2.43;;;3.80;99.90;;;;;;5073859;28;20447;-48
2022/11/13 06:24:28;;;;;;;3.30;2.30;;;3.80;99.90;;;;;;5073916;28;20430;-48
2022/11/13 06:26:57;;;;;;;3.20;2.90;;;3.90;99.90;;;;;;5074041;28;20450;-48
2022/11/13 06:29:23;;;;;;;3.87;3.00;;;3.90;99.90;;;;;;5073980;28;20455;-47
2022/11/13 06:31:50;;;;;;;5.07;3.13;;;3.40;99.90;;;;;;5072552;28;20801;-47
2022/11/13 06:34:17;;;;;;;3.33;3.03;;;2.80;99.90;;;;;;5073167;28;20917;-49
2022/11/13 06:36:44;;;;;;;2.40;2.00;;;2.70;99.90;;;;;;5073595;28;20442;-47
2022/11/13 06:39:12;;;;;;;2.60;2.37;;;3.00;99.90;;;;;;5073742;28;20469;-47
2022/11/13 06:41:39;;;;;;;6.90;5.07;;;3.40;99.90;;;;;;5073679;28;20445;-47
2022/11/13 06:44:08;;;;;;;4.93;4.47;;;3.60;99.90;;;;;;5073169;28;20946;-47
2022/11/13 06:46:34;;;;;;;6.03;4.73;;;3.70;99.90;;;;;;5073668;28;20436;-47
2022/11/13 06:49:01;;;;;;;5.30;3.30;;;3.70;99.90;;;;;;5073102;28;20505;-47
2022/11/13 06:51:30;;;;;;;7.27;5.17;;;3.70;99.90;;;;;;5073042;28;20530;-49
2022/11/13 06:53:56;;;;;;;3.97;3.50;;;3.70;99.90;;;;;;5073260;28;20581;-49
2022/11/13 06:56:24;;;;;;;3.30;2.60;;;3.30;99.90;;;;;;5072880;28;20544;-47
2022/11/13 06:58:51;;;;;;;3.97;3.20;;;3.40;99.90;;;;;;5072931;28;20556;-48
2022/11/13 07:01:21;;;;;;;2.50;2.30;;;3.70;99.90;;;;;;5073338;28;20530;-47
2022/11/13 07:03:48;;;;;;;5.13;1.90;;;3.80;99.90;;;;;;5072930;28;20437;-47
2022/11/13 07:06:17;;;;;;;2.23;2.03;;;3.90;99.90;;;;;;5073316;28;20537;-49
2022/11/13 07:08:44;;;;;;;5.43;3.30;;;3.90;99.90;;;;;;5073110;28;20549;-47
2022/11/13 07:11:13;;;;;;;9.07;4.73;;;3.30;99.90;;;;;;5072964;28;20478;-50
2022/11/13 07:13:41;;;;;;;8.23;4.20;;;2.60;99.90;;;;;;5072416;28;21057;-48
2022/11/13 07:16:09;;;;;;;4.13;3.60;;;2.50;99.90;;;;;;5072628;28;20451;-49
2022/11/13 07:18:38;;;;;;;7.50;4.80;;;2.90;99.90;;;;;;5072809;28;20634;-48
2022/11/13 07:21:06;;;;;;;10.47;9.50;;;3.30;99.90;;;;;;5072841;28;20447;-49
2022/11/13 07:23:35;;;;;;;24.03;16.23;;;3.60;99.90;;;;;;5072315;28;20493;-49
2022/11/13 07:26:02;;;;;;;9.73;7.97;;;2.80;99.90;;;;;;5072445;28;20456;-49
2022/11/13 07:28:29;;;;;;;6.60;6.00;;;2.90;99.90;;;;;;5072387;28;20468;-48
2022/11/13 07:30:57;;;;;;;7.30;5.30;;;3.20;99.90;;;;;;5072789;28;20536;-47
2022/11/13 07:33:24;;;;;;;8.33;3.90;;;3.40;99.90;;;;;;5071992;28;20474;-48
2022/11/13 07:35:54;;;;;;;3.30;2.50;;;3.70;99.90;;;;;;5072311;28;20538;-47
2022/11/13 07:38:21;;;;;;;7.00;2.57;;;3.80;99.90;;;;;;5072128;28;20526;-48
2022/11/13 07:40:48;;;;;;;3.60;2.50;;;3.70;99.90;;;;;;5072291;28;20542;-48
2022/11/13 07:43:15;;;;;;;8.77;6.60;;;3.60;99.90;;;;;;5071877;28;20530;-47
2022/11/13 07:45:42;;;;;;;6.83;5.40;;;3.70;99.90;;;;;;5072436;28;20520;-48
2022/11/13 07:48:10;;;;;;;5.80;4.60;;;3.70;99.90;;;;;;5072195;28;20440;-48
2022/11/13 07:50:38;;;;;;;4.03;3.53;;;3.80;99.90;;;;;;5072125;28;20537;-47
2022/11/13 07:53:08;;;;;;;6.97;4.00;;;3.90;99.90;;;;;;5071774;28;20447;-48
2022/11/13 07:55:35;;;;;;;3.57;3.27;;;4.00;99.90;;;;;;5071559;28;20542;-45
2022/11/13 07:58:03;;;;;;;10.53;9.27;;;3.70;99.90;;;;;;5072191;28;20533;-49
2022/11/13 08:00:32;;;;;;;10.40;8.87;;;2.60;99.90;;;;;;5071909;28;20547;-49
2022/11/13 08:03:05;;;;;;;13.00;11.77;;;2.30;99.90;;;;;;5071790;28;20446;-47
2022/11/13 08:05:32;;;;;;;11.40;10.20;;;1.70;99.90;;;;;;5071773;28;20452;-48
2022/11/13 08:07:58;;;;;;;13.07;10.67;;;1.60;99.90;;;;;;5071804;28;20473;-48
2022/11/13 08:10:27;;;;;;;10.30;8.90;;;1.50;99.90;;;;;;5071711;28;20461;-48
2022/11/13 08:12:59;;;;;;;11.03;8.40;;;1.80;99.90;;;;;;5071655;28;20965;-48
2022/11/13 08:15:26;;;;;;;12.13;8.80;;;2.40;99.90;;;;;;5071470;28;20480;-47
2022/11/13 08:17:54;;;;;;;10.17;9.10;;;2.70;99.90;;;;;;5071729;28;20524;-47
2022/11/13 08:20:21;;;;;;;8.47;6.53;;;2.90;99.90;;;;;;5073051;28;20566;-47
2022/11/13 08:22:50;;;;;;;10.57;7.30;;;3.20;99.90;;;;;;5071709;28;20502;-47
2022/11/13 08:25:17;;;;;;;10.53;8.13;;;3.40;99.90;;;;;;5071419;28;20440;-47
2022/11/13 08:27:45;;;;;;;10.43;9.40;;;3.50;99.90;;;;;;5071597;28;20824;-48
2022/11/13 08:30:14;;;;;;;8.80;8.00;;;3.50;99.90;;;;;;5071233;28;20882;-47
2022/11/13 08:32:41;;;;;;;6.77;6.07;;;3.60;99.90;;;;;;5070257;28;20816;-49
2022/11/13 08:35:08;;;;;;;8.77;7.30;;;3.10;99.90;;;;;;5070737;28;20488;-48
2022/11/13 08:37:35;;;;;;;13.40;7.73;;;3.10;99.90;;;;;;5066874;28;20462;-48
2022/11/13 08:40:02;;;;;;;7.23;5.90;;;3.40;99.90;;;;;;5050970;28;20466;-48
2022/11/13 08:42:29;;;;;;;9.33;8.07;;;3.50;99.90;;;;;;5051124;28;20536;-48
2022/11/13 08:44:57;;;;;;;8.27;7.00;;;3.60;99.90;;;;;;5050000;28;20446;-48
2022/11/13 08:47:27;;;;;;;5.20;4.07;;;3.00;99.90;;;;;;5050943;28;20793;-47
2022/11/13 08:49:54;;;;;;;5.97;4.10;;;3.30;99.90;;;;;;5051116;28;20470;-48
2022/11/13 08:52:21;;;;;;;5.80;3.87;;;3.50;99.90;;;;;;5050880;28;20443;-49
2022/11/13 08:54:48;;;;;;;7.10;4.93;;;3.40;99.90;;;;;;5049960;28;20508;-48
2022/11/13 08:57:15;;;;;;;7.20;6.53;;;3.60;99.90;;;;;;5050817;28;20533;-48
2022/11/13 08:59:42;;;;;;;13.30;7.30;;;3.50;99.90;;;;;;5050666;28;20469;-49
2022/11/13 09:02:12;;;;;;;6.23;5.73;;;2.90;99.90;;;;;;5050526;28;20442;-48
2022/11/13 09:04:39;;;;;;;9.93;7.30;;;3.30;99.90;;;;;;5051064;28;20451;-49
2022/11/13 09:07:06;;;;;;;9.17;8.27;;;3.50;99.90;;;;;;5051083;28;20527;-48
2022/11/13 09:09:33;;;;;;;7.70;5.57;;;3.70;99.90;;;;;;5050943;28;20899;-48
2022/11/13 09:12:01;;;;;;;8.40;6.13;;;3.80;99.90;;;;;;5050610;28;20447;-48
2022/11/13 09:14:29;;;;;;;6.83;5.07;;;3.90;99.90;;;;;;5050333;28;21098;-47
2022/11/13 09:16:56;;;;;;;4.87;3.40;;;3.90;99.90;;;;;;5050781;28;20447;-50
2022/11/13 09:19:24;;;;;;;11.87;7.07;;;4.00;99.90;;;;;;5050195;28;20563;-49
2022/11/13 09:21:52;;;;;;;5.50;3.00;;;4.10;99.90;;;;;;5050656;28;20820;-46
2022/11/13 09:24:19;;;;;;;4.03;3.30;;;4.20;99.90;;;;;;5050489;28;20432;-46
2022/11/13 09:26:45;;;;;;;6.73;5.10;;;4.30;99.90;;;;;;5050644;28;20947;-47
2022/11/13 09:29:12;;;;;;;7.03;5.20;;;3.70;99.90;;;;;;5050970;28;20469;-48
2022/11/13 09:31:39;;;;;;;6.63;5.37;;;4.00;99.90;;;;;;5050070;28;20531;-48
2022/11/13 09:34:07;;;;;;;6.20;5.60;;;4.00;99.90;;;;;;5049688;28;20503;-50
2022/11/13 09:36:36;;;;;;;17.27;9.00;;;4.00;99.90;;;;;;5050620;28;20442;-48
2022/11/13 09:39:03;;;;;;;10.47;6.43;;;4.20;99.90;;;;;;5058957;28;20533;-50
2022/11/13 09:41:34;;;;;;;5.47;3.40;;;4.60;99.90;;;;;;5070576;28;20532;-48
2022/11/13 09:44:03;;;;;;;4.27;3.37;;;4.80;99.90;;;;;;5069148;28;20461;-49
2022/11/13 09:46:38;;;;;;;4.60;2.03;;;5.10;99.90;;;;;;5070816;28;20452;-48
2022/11/13 09:49:13;;;;;;;3.83;2.37;;;5.40;99.90;;;;;;5069316;28;20554;-48
2022/11/13 09:51:46;;;;;;;3.63;2.60;;;5.60;99.90;;;;;;5070666;28;20447;-48
2022/11/13 09:54:14;;;;;;;2.63;2.10;;;5.70;99.90;;;;;;5070533;28;20566;-48
2022/11/13 09:56:46;;;;;;;5.13;1.80;;;5.80;99.90;;;;;;5070258;28;20547;-46
2022/11/13 09:59:21;;;;;;;3.53;2.00;;;5.90;99.90;;;;;;5070335;28;20921;-46
2022/11/13 10:01:54;;;;;;;13.27;2.47;;;5.90;99.90;;;;;;5070758;28;20451;-46
2022/11/13 10:04:32;;;;;;;2.37;2.10;;;5.90;99.90;;;;;;5070128;28;20558;-46
2022/11/13 10:07:12;;;;;;;4.53;3.50;;;5.90;99.90;;;;;;5071974;28;20482;-49
2022/11/13 10:09:51;;;;;;;5.80;3.83;;;5.90;99.90;;;;;;5074121;28;20478;-48
2022/11/13 10:12:20;;;;;;;5.00;4.50;;;6.00;99.90;;;;;;5073925;28;20535;-46
2022/11/13 10:14:50;;;;;;;3.17;2.70;;;6.00;99.90;;;;;;5073191;28;20575;-48
2022/11/13 10:17:22;;;;;;;3.27;2.70;;;6.30;99.90;;;;;;5072467;28;20764;-46
2022/11/13 10:19:56;;;;;;;2.80;2.33;;;6.40;99.90;;;;;;5072490;28;20867;-46
2022/11/13 10:22:30;;;;;;;2.10;1.80;;;6.50;99.90;;;;;;5073103;28;20524;-47
2022/11/13 10:25:09;;;;;;;3.00;1.97;;;6.50;99.90;;;;;;5073329;28;20536;-46
2022/11/13 10:27:36;;;;;;;3.30;2.40;;;6.50;99.90;;;;;;5073626;28;20517;-49
2022/11/13 10:30:03;;;;;;;4.27;2.37;;;6.60;99.90;;;;;;5069522;28;20478;-46
2022/11/13 10:32:32;;;;;;;3.30;2.40;;;6.60;99.90;;;;;;5068317;28;21016;-47
2022/11/13 10:35:20;;;;;;;5.63;2.80;;;6.70;99.90;;;;;;5074770;28;20571;-46
2022/11/13 10:37:57;;;;;;;2.90;2.27;;;6.80;99.90;;;;;;5050498;28;20794;-47
2022/11/13 10:40:26;;;;;;;3.47;2.87;;;6.90;99.90;;;;;;5050574;28;20466;-48
2022/11/13 10:42:53;;;;;;;2.83;2.30;;;6.90;99.90;;;;;;5050282;28;20521;-48
2022/11/13 10:45:22;;;;;;;2.33;2.13;;;7.10;99.90;;;;;;5058670;28;20529;-47
2022/11/13 10:47:50;;;;;;;5.23;2.50;;;7.20;99.90;;;;;;5075303;28;20441;-46
2022/11/13 10:50:22;;;;;;;2.63;2.30;;;7.20;99.90;;;;;;5088962;28;20460;-50
2022/11/13 10:52:53;;;;;;;2.60;2.30;;;7.30;99.90;;;;;;5091427;28;20526;-48
2022/11/13 10:55:26;;;;;;;4.40;2.30;;;7.40;99.90;;;;;;5092092;28;20474;-48
2022/11/13 10:57:58;;;;;;;4.27;3.13;;;7.50;99.90;;;;;;5091115;28;20443;-46
2022/11/13 11:00:30;;;;;;;5.03;3.27;;;7.60;99.90;;;;;;5091718;28;20542;-46
2022/11/13 11:02:57;;;;;;;4.17;2.17;;;7.70;99.90;;;;;;5092589;28;20439;-47
2022/11/13 11:05:25;;;;;;;5.10;3.03;;;7.70;99.90;;;;;;5093274;28;20518;-47
2022/11/13 11:07:55;;;;;;;2.80;2.50;;;7.70;99.90;;;;;;5093289;28;20444;-49
2022/11/13 11:10:30;;;;;;;3.60;3.30;;;7.70;99.90;;;;;;5091435;28;20550;-46
2022/11/13 11:13:02;;;;;;;3.20;2.93;;;7.60;99.90;;;;;;5091181;28;20954;-46
2022/11/13 11:15:36;;;;;;;3.50;3.20;;;7.70;99.90;;;;;;5091514;28;20580;-46
2022/11/13 11:18:06;;;;;;;7.13;4.20;;;7.70;99.90;;;;;;5053139;28;20444;-49
2022/11/13 11:20:44;;;;;;;4.30;3.10;;;7.90;99.90;;;;;;5051620;28;20557;-47
2022/11/13 11:23:22;;;;;;;3.17;2.88;;;8.00;99.90;;;;;;5051955;28;20559;-44
2022/11/13 11:25:54;;;;;;;4.57;3.50;;;8.00;99.90;;;;;;5052558;28;20228;-45
2022/11/13 11:28:31;;;;;;;3.60;2.83;;;8.20;99.90;;;;;;5060577;28;20536;-44
2022/11/13 11:31:06;;;;;;;3.57;2.77;;;8.20;99.90;;;;;;5072578;28;20535;-45
2022/11/13 11:33:36;;;;;;;2.83;2.63;;;8.30;99.90;;;;;;5072215;28;20535;-45
2022/11/13 11:36:13;;;;;;;3.80;3.13;;;8.40;99.90;;;;;;5064548;28;20572;-47
2022/11/13 11:38:50;;;;;;;2.83;2.40;;;8.50;99.90;;;;;;5050688;28;20534;-44
2022/11/13 11:41:21;;;;;;;3.60;2.87;;;8.60;99.90;;;;;;5050871;28;20538;-45
2022/11/13 11:44:00;;;;;;;3.57;2.73;;;8.70;99.90;;;;;;5052434;28;20532;-45
2022/11/13 11:46:29;;;;;;;3.37;3.07;;;8.70;99.90;;;;;;5051665;28;20868;-45
2022/11/13 11:48:59;;;;;;;2.70;2.27;;;9.10;99.90;;;;;;5073388;28;20456;-46
2022/11/13 11:51:31;;;;;;;2.77;2.40;;;8.90;99.90;;;;;;5089795;28;20448;-45
2022/11/13 11:54:16;;;;;;;5.47;3.73;;;9.00;99.90;;;;;;5090396;28;20455;-49
2022/11/13 11:56:47;;;;;;;6.40;3.40;;;8.90;99.90;;;;;;5091409;28;20432;-47
2022/11/13 11:59:35;;;;;;;5.53;3.40;;;8.90;99.90;;;;;;5082480;28;21051;-47
2022/11/13 12:02:30;;;;;;;3.50;2.93;;;9.40;99.90;;;;;;5082131;28;20805;-47
2022/11/13 12:05:11;;;;;;;3.00;2.70;;;9.40;99.90;;;;;;5089270;28;20535;-46
2022/11/13 12:07:46;;;;;;;2.90;2.27;;;9.50;99.90;;;;;;5090596;28;20436;-45
2022/11/13 12:10:26;;;;;;;3.90;2.23;;;9.40;99.90;;;;;;5089821;28;20459;-45
2022/11/13 12:13:03;;;;;;;4.00;2.57;;;9.40;99.90;;;;;;5091269;28;20534;-46
2022/11/13 12:15:39;;;;;;;2.80;2.10;;;9.40;99.90;;;;;;5091582;28;20573;-45
2022/11/13 12:18:19;;;;;;;4.60;2.70;;;9.70;99.90;;;;;;5090889;28;20475;-46
2022/11/13 12:20:56;;;;;;;4.20;2.50;;;9.60;99.90;;;;;;5090512;28;20514;-47
2022/11/13 12:23:36;;;;;;;4.30;1.93;;;9.70;99.90;;;;;;5090100;28;20439;-49
2022/11/13 12:26:12;;;;;;;2.57;2.20;;;9.80;99.90;;;;;;5090156;28;20454;-46
2022/11/13 12:28:48;;;;;;;2.43;1.50;;;9.70;99.90;;;;;;5090102;28;20457;-43
2022/11/13 12:31:28;;;;;;;4.50;2.60;;;10.00;99.90;;;;;;5086906;28;20850;-45
2022/11/13 12:34:02;;;;;;;2.27;1.93;;;10.10;99.90;;;;;;5064856;28;20535;-45
2022/11/13 12:36:30;;;;;;;2.30;2.00;;;9.90;99.90;;;;;;5081572;28;21078;-46
2022/11/13 12:39:04;;;;;;;3.27;2.27;;;9.90;99.90;;;;;;5082718;28;20819;-45
2022/11/13 12:41:39;;;;;;;2.90;1.93;;;9.80;99.90;;;;;;5091522;28;20543;-46
2022/11/13 12:44:23;;;;;;;2.53;1.90;;;9.90;99.90;;;;;;5090729;28;20522;-45
2022/11/13 12:46:51;;;;;;;2.13;1.93;;;9.90;99.90;;;;;;5091155;28;20435;-47
2022/11/13 12:49:31;;;;;;;2.20;1.60;;;10.00;99.90;;;;;;5091406;28;20554;-45
2022/11/13 12:52:00;;;;;;;2.43;2.23;;;10.00;99.90;;;;;;5091058;28;20846;-48
2022/11/13 12:54:28;;;;;;;2.27;2.07;;;10.00;99.90;;;;;;5089226;28;21030;-47
2022/11/13 12:57:16;;;;;;;2.57;2.00;;;9.90;99.90;;;;;;5089735;28;20942;-45
2022/11/13 12:59:45;;;;;;;2.27;2.00;;;9.90;99.90;;;;;;5089964;28;20555;-45
2022/11/13 13:02:29;;;;;;;2.97;2.20;;;9.90;99.90;;;;;;5060349;28;20442;-47
2022/11/13 13:05:10;;;;;;;4.37;2.20;;;10.20;99.90;;;;;;5061388;28;20515;-47
2022/11/13 13:07:54;;;;;;;3.63;2.70;;;10.40;99.90;;;;;;5060442;28;20436;-45